sensor_id;sensor_type;location;lat;lon;timestamp;pressure;altitude;pressure_sealevel;temperature
68012;BMP180;54794;48.348;7.878;2023-04-30T00:00:35;99295.00;;;14.10
68012;BMP180;54794;48.348;7.878;2023-04-30T00:03:07;99299.00;;;14.20
68012;BMP180;54794;48.348;7.878;2023-04-30T00:05:41;99310.00;;;14.20
68012;BMP180;54794;48.348;7.878;2023-04-30T00:08:23;99311.00;;;14.00
68012;BMP180;54794;48.348;7.878;2023-04-30T00:10:57;99316.00;;;14.00
68012;BMP180;54794;48.348;7.878;2023-04-30T00:13:44;99308.00;;;14.10
68012;BMP180;54794;48.348;7.878;2023-04-30T00:16:41;99308.00;;;14.20
68012;BMP180;54794;48.348;7.878;2023-04-30T00:19:35;99297.00;;;14.00
68012;BMP180;54794;48.348;7.878;2023-04-30T00:22:32;99304.00;;;14.00
68012;BMP180;54794;48.348;7.878;2023-04-30T00:25:23;99299.00;;;13.90
68012;BMP180;54794;48.348;7.878;2023-04-30T00:27:59;99290.00;;;14.10
68012;BMP180;54794;48.348;7.878;2023-04-30T00:30:35;99293.00;;;14.10
68012;BMP180;54794;48.348;7.878;2023-04-30T00:33:11;99297.00;;;14.00
68012;BMP180;54794;48.348;7.878;2023-04-30T00:35:49;99297.00;;;14.10
68012;BMP180;54794;48.348;7.878;2023-04-30T00:38:27;99310.00;;;13.80
68012;BMP180;54794;48.348;7.878;2023-04-30T00:41:10;99297.00;;;13.80
68012;BMP180;54794;48.348;7.878;2023-04-30T00:43:37;99289.00;;;13.80
68012;BMP180;54794;48.348;7.878;2023-04-30T00:46:04;99281.00;;;13.80
68012;BMP180;54794;48.348;7.878;2023-04-30T00:48:45;99285.00;;;13.80
68012;BMP180;54794;48.348;7.878;2023-04-30T00:51:19;99289.00;;;13.60
68012;BMP180;54794;48.348;7.878;2023-04-30T00:54:03;99278.00;;;13.40
68012;BMP180;54794;48.348;7.878;2023-04-30T00:56:34;99271.00;;;13.70
68012;BMP180;54794;48.348;7.878;2023-04-30T00:59:03;99268.00;;;13.80
68012;BMP180;54794;48.348;7.878;2023-04-30T01:01:46;99267.00;;;13.50
68012;BMP180;54794;48.348;7.878;2023-04-30T01:04:23;99264.00;;;13.60
68012;BMP180;54794;48.348;7.878;2023-04-30T01:07:35;99258.00;;;13.90
68012;BMP180;54794;48.348;7.878;2023-04-30T01:13:31;99261.00;;;13.40
68012;BMP180;54794;48.348;7.878;2023-04-30T01:16:24;99256.00;;;13.50
68012;BMP180;54794;48.348;7.878;2023-04-30T01:21:51;99246.00;;;13.60
68012;BMP180;54794;48.348;7.878;2023-04-30T01:28:01;99244.00;;;13.50
68012;BMP180;54794;48.348;7.878;2023-04-30T01:30:32;99242.00;;;13.40
68012;BMP180;54794;48.348;7.878;2023-04-30T01:33:00;99252.00;;;13.30
68012;BMP180;54794;48.348;7.878;2023-04-30T01:44:05;99247.00;;;13.20
68012;BMP180;54794;48.348;7.878;2023-04-30T01:46:40;99256.00;;;12.90
68012;BMP180;54794;48.348;7.878;2023-04-30T01:52:39;99253.00;;;13.00
68012;BMP180;54794;48.348;7.878;2023-04-30T01:58:23;99249.00;;;13.20
68012;BMP180;54794;48.348;7.878;2023-04-30T02:00:57;99250.00;;;13.30
68012;BMP180;54794;48.348;7.878;2023-04-30T02:03:52;99243.00;;;13.10
68012;BMP180;54794;48.348;7.878;2023-04-30T02:06:32;99242.00;;;13.20
68012;BMP180;54794;48.348;7.878;2023-04-30T02:09:11;99242.00;;;13.10
68012;BMP180;54794;48.348;7.878;2023-04-30T02:12:12;99238.00;;;13.10
68012;BMP180;54794;48.348;7.878;2023-04-30T02:15:05;99246.00;;;13.00
68012;BMP180;54794;48.348;7.878;2023-04-30T02:17:34;99249.00;;;12.90
68012;BMP180;54794;48.348;7.878;2023-04-30T02:20:02;99247.00;;;13.20
68012;BMP180;54794;48.348;7.878;2023-04-30T02:22:50;99246.00;;;13.10
68012;BMP180;54794;48.348;7.878;2023-04-30T02:25:24;99249.00;;;13.20
68012;BMP180;54794;48.348;7.878;2023-04-30T02:28:10;99251.00;;;13.30
68012;BMP180;54794;48.348;7.878;2023-04-30T02:30:37;99248.00;;;13.10
68012;BMP180;54794;48.348;7.878;2023-04-30T02:33:14;99256.00;;;12.90
68012;BMP180;54794;48.348;7.878;2023-04-30T02:36:01;99248.00;;;12.90
68012;BMP180;54794;48.348;7.878;2023-04-30T02:38:50;99254.00;;;12.90
68012;BMP180;54794;48.348;7.878;2023-04-30T02:41:40;99250.00;;;13.00
68012;BMP180;54794;48.348;7.878;2023-04-30T02:44:07;99242.00;;;13.00
68012;BMP180;54794;48.348;7.878;2023-04-30T02:46:46;99250.00;;;12.90
68012;BMP180;54794;48.348;7.878;2023-04-30T02:49:45;99260.00;;;12.70
68012;BMP180;54794;48.348;7.878;2023-04-30T02:52:24;99247.00;;;12.80
68012;BMP180;54794;48.348;7.878;2023-04-30T02:55:24;99244.00;;;13.10
68012;BMP180;54794;48.348;7.878;2023-04-30T02:57:54;99244.00;;;13.10
68012;BMP180;54794;48.348;7.878;2023-04-30T03:00:47;99242.00;;;12.60
68012;BMP180;54794;48.348;7.878;2023-04-30T03:03:27;99236.00;;;12.70
68012;BMP180;54794;48.348;7.878;2023-04-30T03:05:58;99242.00;;;12.90
68012;BMP180;54794;48.348;7.878;2023-04-30T03:08:34;99244.00;;;12.80
68012;BMP180;54794;48.348;7.878;2023-04-30T03:11:01;99237.00;;;12.70
68012;BMP180;54794;48.348;7.878;2023-04-30T03:13:28;99228.00;;;12.80
68012;BMP180;54794;48.348;7.878;2023-04-30T03:16:08;99243.00;;;12.80
68012;BMP180;54794;48.348;7.878;2023-04-30T03:19:15;99245.00;;;12.90
68012;BMP180;54794;48.348;7.878;2023-04-30T03:21:55;99239.00;;;12.70
68012;BMP180;54794;48.348;7.878;2023-04-30T03:24:22;99246.00;;;12.70
68012;BMP180;54794;48.348;7.878;2023-04-30T03:26:49;99240.00;;;12.90
68012;BMP180;54794;48.348;7.878;2023-04-30T03:29:19;99242.00;;;12.90
68012;BMP180;54794;48.348;7.878;2023-04-30T03:31:59;99240.00;;;12.80
68012;BMP180;54794;48.348;7.878;2023-04-30T03:34:48;99239.00;;;12.80
68012;BMP180;54794;48.348;7.878;2023-04-30T03:37:18;99226.00;;;12.60
68012;BMP180;54794;48.348;7.878;2023-04-30T03:39:52;99240.00;;;12.90
68012;BMP180;54794;48.348;7.878;2023-04-30T03:42:19;99232.00;;;13.00
68012;BMP180;54794;48.348;7.878;2023-04-30T03:44:46;99228.00;;;13.10
68012;BMP180;54794;48.348;7.878;2023-04-30T03:47:13;99231.00;;;12.80
68012;BMP180;54794;48.348;7.878;2023-04-30T03:49:40;99226.00;;;12.80
68012;BMP180;54794;48.348;7.878;2023-04-30T03:52:07;99226.00;;;12.90
68012;BMP180;54794;48.348;7.878;2023-04-30T03:54:37;99228.00;;;12.80
68012;BMP180;54794;48.348;7.878;2023-04-30T03:57:16;99219.00;;;13.00
68012;BMP180;54794;48.348;7.878;2023-04-30T03:59:45;99217.00;;;12.90
68012;BMP180;54794;48.348;7.878;2023-04-30T04:02:24;99219.00;;;12.90
68012;BMP180;54794;48.348;7.878;2023-04-30T04:05:07;99229.00;;;12.70
68012;BMP180;54794;48.348;7.878;2023-04-30T04:07:41;99219.00;;;12.90
68012;BMP180;54794;48.348;7.878;2023-04-30T04:10:37;99228.00;;;13.00
68012;BMP180;54794;48.348;7.878;2023-04-30T04:13:17;99233.00;;;12.90
68012;BMP180;54794;48.348;7.878;2023-04-30T04:15:56;99226.00;;;12.90
68012;BMP180;54794;48.348;7.878;2023-04-30T04:18:43;99224.00;;;13.00
68012;BMP180;54794;48.348;7.878;2023-04-30T04:21:26;99223.00;;;12.90
68012;BMP180;54794;48.348;7.878;2023-04-30T04:24:00;99231.00;;;12.90
68012;BMP180;54794;48.348;7.878;2023-04-30T04:26:37;99226.00;;;12.80
68012;BMP180;54794;48.348;7.878;2023-04-30T04:29:21;99228.00;;;12.60
68012;BMP180;54794;48.348;7.878;2023-04-30T04:32:20;99233.00;;;12.90
68012;BMP180;54794;48.348;7.878;2023-04-30T04:34:54;99236.00;;;12.80
68012;BMP180;54794;48.348;7.878;2023-04-30T04:37:25;99233.00;;;12.80
68012;BMP180;54794;48.348;7.878;2023-04-30T04:40:03;99226.00;;;12.70
68012;BMP180;54794;48.348;7.878;2023-04-30T04:43:17;99233.00;;;12.70
68012;BMP180;54794;48.348;7.878;2023-04-30T04:51:52;99257.00;;;13.10
68012;BMP180;54794;48.348;7.878;2023-04-30T04:55:02;99256.00;;;12.70
68012;BMP180;54794;48.348;7.878;2023-04-30T04:57:35;99256.00;;;12.80
68012;BMP180;54794;48.348;7.878;2023-04-30T05:00:02;99245.00;;;13.10
68012;BMP180;54794;48.348;7.878;2023-04-30T05:02:32;99252.00;;;12.80
68012;BMP180;54794;48.348;7.878;2023-04-30T05:04:59;99254.00;;;13.30
68012;BMP180;54794;48.348;7.878;2023-04-30T05:07:27;99256.00;;;13.10
68012;BMP180;54794;48.348;7.878;2023-04-30T05:09:54;99245.00;;;13.20
68012;BMP180;54794;48.348;7.878;2023-04-30T05:12:21;99255.00;;;12.90
68012;BMP180;54794;48.348;7.878;2023-04-30T05:14:48;99246.00;;;13.30
68012;BMP180;54794;48.348;7.878;2023-04-30T05:17:17;99243.00;;;13.30
68012;BMP180;54794;48.348;7.878;2023-04-30T05:19:44;99249.00;;;13.40
68012;BMP180;54794;48.348;7.878;2023-04-30T05:22:13;99249.00;;;13.20
68012;BMP180;54794;48.348;7.878;2023-04-30T05:24:43;99248.00;;;13.30
68012;BMP180;54794;48.348;7.878;2023-04-30T05:27:10;99248.00;;;13.40
68012;BMP180;54794;48.348;7.878;2023-04-30T05:29:38;99246.00;;;13.00
68012;BMP180;54794;48.348;7.878;2023-04-30T05:32:05;99247.00;;;13.50
68012;BMP180;54794;48.348;7.878;2023-04-30T05:34:55;99251.00;;;13.70
68012;BMP180;54794;48.348;7.878;2023-04-30T05:37:30;99239.00;;;13.50
68012;BMP180;54794;48.348;7.878;2023-04-30T05:40:30;99249.00;;;13.40
68012;BMP180;54794;48.348;7.878;2023-04-30T05:43:19;99238.00;;;13.60
68012;BMP180;54794;48.348;7.878;2023-04-30T05:46:03;99238.00;;;13.30
68012;BMP180;54794;48.348;7.878;2023-04-30T05:48:45;99233.00;;;13.40
68012;BMP180;54794;48.348;7.878;2023-04-30T05:51:16;99243.00;;;13.30
68012;BMP180;54794;48.348;7.878;2023-04-30T05:53:46;99241.00;;;13.50
68012;BMP180;54794;48.348;7.878;2023-04-30T05:56:18;99232.00;;;13.60
68012;BMP180;54794;48.348;7.878;2023-04-30T05:58:55;99237.00;;;13.40
68012;BMP180;54794;48.348;7.878;2023-04-30T06:01:45;99235.00;;;13.50
68012;BMP180;54794;48.348;7.878;2023-04-30T06:04:31;99234.00;;;13.40
68012;BMP180;54794;48.348;7.878;2023-04-30T06:07:14;99238.00;;;13.70
68012;BMP180;54794;48.348;7.878;2023-04-30T06:10:09;99230.00;;;13.80
68012;BMP180;54794;48.348;7.878;2023-04-30T06:12:39;99218.00;;;14.10
68012;BMP180;54794;48.348;7.878;2023-04-30T06:15:07;99226.00;;;13.80
68012;BMP180;54794;48.348;7.878;2023-04-30T06:17:34;99220.00;;;14.30
68012;BMP180;54794;48.348;7.878;2023-04-30T06:20:09;99226.00;;;14.40
68012;BMP180;54794;48.348;7.878;2023-04-30T06:22:57;99218.00;;;14.50
68012;BMP180;54794;48.348;7.878;2023-04-30T06:25:41;99219.00;;;14.60
68012;BMP180;54794;48.348;7.878;2023-04-30T06:28:18;99205.00;;;14.40
68012;BMP180;54794;48.348;7.878;2023-04-30T06:30:51;99223.00;;;14.70
68012;BMP180;54794;48.348;7.878;2023-04-30T06:33:26;99222.00;;;14.70
68012;BMP180;54794;48.348;7.878;2023-04-30T06:36:11;99214.00;;;15.20
68012;BMP180;54794;48.348;7.878;2023-04-30T06:38:43;99215.00;;;15.40
68012;BMP180;54794;48.348;7.878;2023-04-30T06:41:09;99212.00;;;15.10
68012;BMP180;54794;48.348;7.878;2023-04-30T06:43:36;99210.00;;;15.50
68012;BMP180;54794;48.348;7.878;2023-04-30T06:46:03;99209.00;;;15.60
68012;BMP180;54794;48.348;7.878;2023-04-30T06:48:32;99210.00;;;15.70
68012;BMP180;54794;48.348;7.878;2023-04-30T06:50:59;99202.00;;;15.70
68012;BMP180;54794;48.348;7.878;2023-04-30T06:53:26;99217.00;;;16.20
68012;BMP180;54794;48.348;7.878;2023-04-30T06:55:53;99215.00;;;16.60
68012;BMP180;54794;48.348;7.878;2023-04-30T06:58:21;99207.00;;;16.20
68012;BMP180;54794;48.348;7.878;2023-04-30T07:00:48;99219.00;;;16.20
68012;BMP180;54794;48.348;7.878;2023-04-30T07:03:14;99209.00;;;16.20
68012;BMP180;54794;48.348;7.878;2023-04-30T07:05:41;99211.00;;;16.50
68012;BMP180;54794;48.348;7.878;2023-04-30T07:08:08;99213.00;;;16.80
68012;BMP180;54794;48.348;7.878;2023-04-30T07:10:35;99208.00;;;16.90
68012;BMP180;54794;48.348;7.878;2023-04-30T07:13:05;99209.00;;;17.10
68012;BMP180;54794;48.348;7.878;2023-04-30T07:15:33;99203.00;;;17.00
68012;BMP180;54794;48.348;7.878;2023-04-30T07:18:04;99202.00;;;17.00
68012;BMP180;54794;48.348;7.878;2023-04-30T07:20:31;99208.00;;;16.80
68012;BMP180;54794;48.348;7.878;2023-04-30T07:22:58;99196.00;;;16.90
68012;BMP180;54794;48.348;7.878;2023-04-30T07:25:25;99195.00;;;17.10
68012;BMP180;54794;48.348;7.878;2023-04-30T07:27:53;99209.00;;;16.80
68012;BMP180;54794;48.348;7.878;2023-04-30T07:30:20;99204.00;;;17.20
68012;BMP180;54794;48.348;7.878;2023-04-30T07:32:50;99202.00;;;16.90
68012;BMP180;54794;48.348;7.878;2023-04-30T07:35:17;99204.00;;;17.30
68012;BMP180;54794;48.348;7.878;2023-04-30T07:37:44;99196.00;;;17.40
68012;BMP180;54794;48.348;7.878;2023-04-30T07:40:12;99203.00;;;17.60
68012;BMP180;54794;48.348;7.878;2023-04-30T07:42:50;99208.00;;;17.30
68012;BMP180;54794;48.348;7.878;2023-04-30T07:45:18;99203.00;;;17.40
68012;BMP180;54794;48.348;7.878;2023-04-30T07:47:44;99200.00;;;17.40
68012;BMP180;54794;48.348;7.878;2023-04-30T07:50:12;99194.00;;;17.60
68012;BMP180;54794;48.348;7.878;2023-04-30T07:52:41;99196.00;;;17.70
68012;BMP180;54794;48.348;7.878;2023-04-30T07:55:08;99203.00;;;17.40
68012;BMP180;54794;48.348;7.878;2023-04-30T07:57:38;99197.00;;;17.50
68012;BMP180;54794;48.348;7.878;2023-04-30T08:00:09;99200.00;;;17.70
68012;BMP180;54794;48.348;7.878;2023-04-30T08:02:45;99203.00;;;17.50
68012;BMP180;54794;48.348;7.878;2023-04-30T08:05:14;99193.00;;;17.90
68012;BMP180;54794;48.348;7.878;2023-04-30T08:07:44;99196.00;;;17.80
68012;BMP180;54794;48.348;7.878;2023-04-30T08:10:21;99195.00;;;17.90
68012;BMP180;54794;48.348;7.878;2023-04-30T08:12:48;99193.00;;;18.10
68012;BMP180;54794;48.348;7.878;2023-04-30T08:15:21;99200.00;;;18.30
68012;BMP180;54794;48.348;7.878;2023-04-30T08:17:52;99195.00;;;18.30
68012;BMP180;54794;48.348;7.878;2023-04-30T08:20:34;99196.00;;;18.50
68012;BMP180;54794;48.348;7.878;2023-04-30T08:23:12;99200.00;;;18.80
68012;BMP180;54794;48.348;7.878;2023-04-30T08:25:42;99194.00;;;18.80
68012;BMP180;54794;48.348;7.878;2023-04-30T08:28:23;99204.00;;;18.70
68012;BMP180;54794;48.348;7.878;2023-04-30T08:31:00;99200.00;;;18.70
68012;BMP180;54794;48.348;7.878;2023-04-30T08:33:40;99201.00;;;18.90
68012;BMP180;54794;48.348;7.878;2023-04-30T08:36:10;99202.00;;;19.00
68012;BMP180;54794;48.348;7.878;2023-04-30T08:38:44;99199.00;;;19.20
68012;BMP180;54794;48.348;7.878;2023-04-30T08:41:13;99193.00;;;19.30
68012;BMP180;54794;48.348;7.878;2023-04-30T08:43:52;99190.00;;;19.60
68012;BMP180;54794;48.348;7.878;2023-04-30T08:46:20;99194.00;;;19.70
68012;BMP180;54794;48.348;7.878;2023-04-30T08:48:54;99196.00;;;19.80
68012;BMP180;54794;48.348;7.878;2023-04-30T08:51:29;99205.00;;;19.80
68012;BMP180;54794;48.348;7.878;2023-04-30T08:54:03;99196.00;;;19.70
68012;BMP180;54794;48.348;7.878;2023-04-30T08:56:30;99195.00;;;19.50
68012;BMP180;54794;48.348;7.878;2023-04-30T08:59:09;99188.00;;;19.70
68012;BMP180;54794;48.348;7.878;2023-04-30T09:01:59;99188.00;;;19.70
68012;BMP180;54794;48.348;7.878;2023-04-30T09:04:35;99197.00;;;19.90
68012;BMP180;54794;48.348;7.878;2023-04-30T09:07:23;99201.00;;;20.10
68012;BMP180;54794;48.348;7.878;2023-04-30T09:10:33;99195.00;;;20.00
68012;BMP180;54794;48.348;7.878;2023-04-30T09:13:44;99191.00;;;20.00
68012;BMP180;54794;48.348;7.878;2023-04-30T09:16:13;99188.00;;;20.00
68012;BMP180;54794;48.348;7.878;2023-04-30T09:18:41;99191.00;;;20.00
68012;BMP180;54794;48.348;7.878;2023-04-30T09:21:08;99190.00;;;20.30
68012;BMP180;54794;48.348;7.878;2023-04-30T09:23:35;99189.00;;;20.40
68012;BMP180;54794;48.348;7.878;2023-04-30T09:26:25;99189.00;;;20.50
68012;BMP180;54794;48.348;7.878;2023-04-30T09:28:57;99187.00;;;20.20
68012;BMP180;54794;48.348;7.878;2023-04-30T09:31:48;99187.00;;;20.20
68012;BMP180;54794;48.348;7.878;2023-04-30T09:34:35;99201.00;;;19.60
68012;BMP180;54794;48.348;7.878;2023-04-30T09:44:53;99190.00;;;20.10
68012;BMP180;54794;48.348;7.878;2023-04-30T09:54:13;99177.00;;;20.10
68012;BMP180;54794;48.348;7.878;2023-04-30T09:57:23;99179.00;;;20.40
68012;BMP180;54794;48.348;7.878;2023-04-30T10:04:16;99175.00;;;20.80
68012;BMP180;54794;48.348;7.878;2023-04-30T10:07:33;99179.00;;;21.00
68012;BMP180;54794;48.348;7.878;2023-04-30T10:10:25;99166.00;;;21.00
68012;BMP180;54794;48.348;7.878;2023-04-30T10:13:41;99163.00;;;20.10
68012;BMP180;54794;48.348;7.878;2023-04-30T10:19:33;99157.00;;;20.00
68012;BMP180;54794;48.348;7.878;2023-04-30T10:22:02;99140.00;;;20.10
68012;BMP180;54794;48.348;7.878;2023-04-30T10:24:30;99150.00;;;20.50
68012;BMP180;54794;48.348;7.878;2023-04-30T10:27:07;99151.00;;;20.50
68012;BMP180;54794;48.348;7.878;2023-04-30T10:29:52;99149.00;;;20.50
68012;BMP180;54794;48.348;7.878;2023-04-30T10:33:02;99147.00;;;20.80
68012;BMP180;54794;48.348;7.878;2023-04-30T10:36:12;99136.00;;;20.90
68012;BMP180;54794;48.348;7.878;2023-04-30T10:38:52;99134.00;;;21.00
68012;BMP180;54794;48.348;7.878;2023-04-30T10:41:49;99134.00;;;20.50
68012;BMP180;54794;48.348;7.878;2023-04-30T10:44:44;99138.00;;;20.70
68012;BMP180;54794;48.348;7.878;2023-04-30T10:47:19;99130.00;;;20.40
68012;BMP180;54794;48.348;7.878;2023-04-30T10:50:13;99147.00;;;21.10
68012;BMP180;54794;48.348;7.878;2023-04-30T10:53:04;99143.00;;;20.80
68012;BMP180;54794;48.348;7.878;2023-04-30T10:55:32;99137.00;;;21.20
68012;BMP180;54794;48.348;7.878;2023-04-30T10:58:25;99132.00;;;21.70
68012;BMP180;54794;48.348;7.878;2023-04-30T11:01:13;99133.00;;;21.60
68012;BMP180;54794;48.348;7.878;2023-04-30T11:04:02;99129.00;;;21.80
68012;BMP180;54794;48.348;7.878;2023-04-30T11:06:48;99130.00;;;21.80
68012;BMP180;54794;48.348;7.878;2023-04-30T11:09:42;99130.00;;;22.00
68012;BMP180;54794;48.348;7.878;2023-04-30T11:12:20;99128.00;;;21.40
68012;BMP180;54794;48.348;7.878;2023-04-30T11:15:06;99129.00;;;21.30
68012;BMP180;54794;48.348;7.878;2023-04-30T11:17:38;99127.00;;;21.60
68012;BMP180;54794;48.348;7.878;2023-04-30T11:20:07;99130.00;;;21.40
68012;BMP180;54794;48.348;7.878;2023-04-30T11:22:38;99129.00;;;21.40
68012;BMP180;54794;48.348;7.878;2023-04-30T11:25:09;99133.00;;;21.50
68012;BMP180;54794;48.348;7.878;2023-04-30T11:27:40;99132.00;;;21.50
68012;BMP180;54794;48.348;7.878;2023-04-30T11:30:14;99130.00;;;21.50
68012;BMP180;54794;48.348;7.878;2023-04-30T11:32:49;99136.00;;;22.10
68012;BMP180;54794;48.348;7.878;2023-04-30T11:35:18;99128.00;;;22.40
68012;BMP180;54794;48.348;7.878;2023-04-30T11:37:47;99121.00;;;21.70
68012;BMP180;54794;48.348;7.878;2023-04-30T11:40:33;99119.00;;;21.40
68012;BMP180;54794;48.348;7.878;2023-04-30T11:43:30;99124.00;;;21.40
68012;BMP180;54794;48.348;7.878;2023-04-30T11:46:19;99136.00;;;21.50
68012;BMP180;54794;48.348;7.878;2023-04-30T11:49:07;99130.00;;;21.10
68012;BMP180;54794;48.348;7.878;2023-04-30T11:51:49;99122.00;;;20.80
68012;BMP180;54794;48.348;7.878;2023-04-30T11:54:25;99122.00;;;20.70
68012;BMP180;54794;48.348;7.878;2023-04-30T11:56:52;99123.00;;;20.70
68012;BMP180;54794;48.348;7.878;2023-04-30T11:59:19;99120.00;;;21.10
68012;BMP180;54794;48.348;7.878;2023-04-30T12:01:46;99117.00;;;20.80
68012;BMP180;54794;48.348;7.878;2023-04-30T12:04:13;99120.00;;;20.90
68012;BMP180;54794;48.348;7.878;2023-04-30T12:06:41;99126.00;;;20.70
68012;BMP180;54794;48.348;7.878;2023-04-30T12:09:08;99119.00;;;20.60
68012;BMP180;54794;48.348;7.878;2023-04-30T12:11:37;99123.00;;;20.20
68012;BMP180;54794;48.348;7.878;2023-04-30T12:14:32;99119.00;;;20.50
68012;BMP180;54794;48.348;7.878;2023-04-30T12:17:06;99123.00;;;20.60
68012;BMP180;54794;48.348;7.878;2023-04-30T12:19:33;99125.00;;;21.00
68012;BMP180;54794;48.348;7.878;2023-04-30T12:22:08;99118.00;;;20.90
68012;BMP180;54794;48.348;7.878;2023-04-30T12:24:37;99120.00;;;21.00
68012;BMP180;54794;48.348;7.878;2023-04-30T12:27:12;99117.00;;;20.40
68012;BMP180;54794;48.348;7.878;2023-04-30T12:29:48;99111.00;;;20.50
68012;BMP180;54794;48.348;7.878;2023-04-30T12:32:17;99124.00;;;20.80
68012;BMP180;54794;48.348;7.878;2023-04-30T12:34:46;99109.00;;;21.00
68012;BMP180;54794;48.348;7.878;2023-04-30T12:37:15;99108.00;;;20.90
68012;BMP180;54794;48.348;7.878;2023-04-30T12:39:50;99106.00;;;20.90
68012;BMP180;54794;48.348;7.878;2023-04-30T12:42:20;99110.00;;;20.70
68012;BMP180;54794;48.348;7.878;2023-04-30T12:44:47;99115.00;;;20.70
68012;BMP180;54794;48.348;7.878;2023-04-30T12:47:15;99119.00;;;21.00
68012;BMP180;54794;48.348;7.878;2023-04-30T12:49:54;99105.00;;;21.00
68012;BMP180;54794;48.348;7.878;2023-04-30T12:52:31;99104.00;;;20.50
68012;BMP180;54794;48.348;7.878;2023-04-30T12:55:17;99105.00;;;20.70
68012;BMP180;54794;48.348;7.878;2023-04-30T13:00:50;99104.00;;;20.80
68012;BMP180;54794;48.348;7.878;2023-04-30T13:03:23;99099.00;;;21.00
68012;BMP180;54794;48.348;7.878;2023-04-30T13:06:03;99099.00;;;21.00
68012;BMP180;54794;48.348;7.878;2023-04-30T13:08:40;99095.00;;;20.40
68012;BMP180;54794;48.348;7.878;2023-04-30T13:11:33;99093.00;;;20.70
68012;BMP180;54794;48.348;7.878;2023-04-30T13:14:19;99102.00;;;20.70
68012;BMP180;54794;48.348;7.878;2023-04-30T13:16:51;99092.00;;;20.90
68012;BMP180;54794;48.348;7.878;2023-04-30T13:20:03;99102.00;;;20.90
68012;BMP180;54794;48.348;7.878;2023-04-30T13:22:43;99107.00;;;20.70
68012;BMP180;54794;48.348;7.878;2023-04-30T13:25:18;99102.00;;;20.20
68012;BMP180;54794;48.348;7.878;2023-04-30T13:27:48;99090.00;;;20.50
68012;BMP180;54794;48.348;7.878;2023-04-30T13:30:17;99088.00;;;21.20
68012;BMP180;54794;48.348;7.878;2023-04-30T13:32:58;99103.00;;;20.90
68012;BMP180;54794;48.348;7.878;2023-04-30T13:35:47;99088.00;;;20.50
68012;BMP180;54794;48.348;7.878;2023-04-30T13:38:27;99087.00;;;20.60
68012;BMP180;54794;48.348;7.878;2023-04-30T13:40:54;99092.00;;;20.80
68012;BMP180;54794;48.348;7.878;2023-04-30T13:43:21;99087.00;;;21.10
68012;BMP180;54794;48.348;7.878;2023-04-30T13:45:50;99079.00;;;21.40
68012;BMP180;54794;48.348;7.878;2023-04-30T13:48:17;99074.00;;;21.30
68012;BMP180;54794;48.348;7.878;2023-04-30T13:50:44;99075.00;;;21.80
68012;BMP180;54794;48.348;7.878;2023-04-30T13:53:11;99077.00;;;21.70
68012;BMP180;54794;48.348;7.878;2023-04-30T13:55:38;99070.00;;;21.50
68012;BMP180;54794;48.348;7.878;2023-04-30T13:58:14;99072.00;;;20.90
68012;BMP180;54794;48.348;7.878;2023-04-30T14:00:48;99063.00;;;21.20
68012;BMP180;54794;48.348;7.878;2023-04-30T14:03:17;99067.00;;;20.70
68012;BMP180;54794;48.348;7.878;2023-04-30T14:05:53;99066.00;;;21.20
68012;BMP180;54794;48.348;7.878;2023-04-30T14:08:20;99065.00;;;21.20
68012;BMP180;54794;48.348;7.878;2023-04-30T14:10:49;99063.00;;;21.20
68012;BMP180;54794;48.348;7.878;2023-04-30T14:13:16;99061.00;;;21.60
68012;BMP180;54794;48.348;7.878;2023-04-30T14:15:44;99059.00;;;21.50
68012;BMP180;54794;48.348;7.878;2023-04-30T14:18:18;99053.00;;;22.00
68012;BMP180;54794;48.348;7.878;2023-04-30T14:20:48;99050.00;;;21.90
68012;BMP180;54794;48.348;7.878;2023-04-30T14:23:18;99051.00;;;21.90
68012;BMP180;54794;48.348;7.878;2023-04-30T14:25:49;99066.00;;;21.90
68012;BMP180;54794;48.348;7.878;2023-04-30T14:28:16;99052.00;;;21.40
68012;BMP180;54794;48.348;7.878;2023-04-30T14:30:43;99053.00;;;20.80
68012;BMP180;54794;48.348;7.878;2023-04-30T14:33:10;99056.00;;;21.10
68012;BMP180;54794;48.348;7.878;2023-04-30T14:35:38;99054.00;;;21.20
68012;BMP180;54794;48.348;7.878;2023-04-30T14:38:05;99047.00;;;21.00
68012;BMP180;54794;48.348;7.878;2023-04-30T14:40:33;99052.00;;;21.00
68012;BMP180;54794;48.348;7.878;2023-04-30T14:43:00;99052.00;;;21.10
68012;BMP180;54794;48.348;7.878;2023-04-30T14:45:28;99043.00;;;21.20
68012;BMP180;54794;48.348;7.878;2023-04-30T14:47:55;99042.00;;;21.50
68012;BMP180;54794;48.348;7.878;2023-04-30T14:50:23;99039.00;;;21.40
68012;BMP180;54794;48.348;7.878;2023-04-30T14:52:50;99044.00;;;20.80
68012;BMP180;54794;48.348;7.878;2023-04-30T14:55:19;99040.00;;;20.60
68012;BMP180;54794;48.348;7.878;2023-04-30T14:57:49;99034.00;;;20.50
68012;BMP180;54794;48.348;7.878;2023-04-30T15:00:16;99028.00;;;20.50
68012;BMP180;54794;48.348;7.878;2023-04-30T15:02:43;99036.00;;;20.60
68012;BMP180;54794;48.348;7.878;2023-04-30T15:05:10;99028.00;;;20.80
68012;BMP180;54794;48.348;7.878;2023-04-30T15:07:37;99025.00;;;20.70
68012;BMP180;54794;48.348;7.878;2023-04-30T15:10:07;99033.00;;;20.70
68012;BMP180;54794;48.348;7.878;2023-04-30T15:12:35;99022.00;;;21.00
68012;BMP180;54794;48.348;7.878;2023-04-30T15:15:10;99018.00;;;20.70
68012;BMP180;54794;48.348;7.878;2023-04-30T15:17:50;99017.00;;;20.30
68012;BMP180;54794;48.348;7.878;2023-04-30T15:20:21;99015.00;;;20.20
68012;BMP180;54794;48.348;7.878;2023-04-30T15:22:51;99018.00;;;20.30
68012;BMP180;54794;48.348;7.878;2023-04-30T15:25:25;99023.00;;;20.20
68012;BMP180;54794;48.348;7.878;2023-04-30T15:27:58;99020.00;;;20.30
68012;BMP180;54794;48.348;7.878;2023-04-30T15:30:28;99027.00;;;20.60
68012;BMP180;54794;48.348;7.878;2023-04-30T15:33:04;99017.00;;;20.40
68012;BMP180;54794;48.348;7.878;2023-04-30T15:35:42;99011.00;;;20.50
68012;BMP180;54794;48.348;7.878;2023-04-30T15:38:12;99014.00;;;20.50
68012;BMP180;54794;48.348;7.878;2023-04-30T15:40:39;99014.00;;;20.60
68012;BMP180;54794;48.348;7.878;2023-04-30T15:43:06;99014.00;;;20.90
68012;BMP180;54794;48.348;7.878;2023-04-30T15:45:44;99007.00;;;21.20
68012;BMP180;54794;48.348;7.878;2023-04-30T15:48:17;99006.00;;;21.00
68012;BMP180;54794;48.348;7.878;2023-04-30T15:50:44;99012.00;;;20.60
68012;BMP180;54794;48.348;7.878;2023-04-30T15:53:16;99002.00;;;20.90
68012;BMP180;54794;48.348;7.878;2023-04-30T15:55:46;99001.00;;;21.10